sensor_id;sensor_type;location;lat;lon;timestamp;P1;durP1;ratioP1;P2;durP2;ratioP2
10275;SDS011;5183;51.190;6.820;2024-03-02T00:00:38;3.20;;;2.80;;
10275;SDS011;5183;51.190;6.820;2024-03-02T00:03:05;2.70;;;2.37;;
10275;SDS011;5183;51.190;6.820;2024-03-02T00:05:34;3.20;;;2.57;;
10275;SDS011;5183;51.190;6.820;2024-03-02T00:08:03;2.60;;;2.40;;
10275;SDS011;5183;51.190;6.820;2024-03-02T00:10:35;2.80;;;2.50;;
10275;SDS011;5183;51.190;6.820;2024-03-02T00:13:05;2.60;;;2.30;;
10275;SDS011;5183;51.190;6.820;2024-03-02T00:15:40;3.03;;;2.53;;
10275;SDS011;5183;51.190;6.820;2024-03-02T00:18:09;2.90;;;2.60;;
10275;SDS011;5183;51.190;6.820;2024-03-02T00:20:38;3.43;;;2.50;;
10275;SDS011;5183;51.190;6.820;2024-03-02T00:23:07;3.53;;;2.50;;
10275;SDS011;5183;51.190;6.820;2024-03-02T00:25:38;2.87;;;2.53;;
10275;SDS011;5183;51.190;6.820;2024-03-02T00:28:10;3.90;;;2.33;;
10275;SDS011;5183;51.190;6.820;2024-03-02T00:33:24;3.40;;;2.73;;
10275;SDS011;5183;51.190;6.820;2024-03-02T00:35:53;3.13;;;2.50;;
10275;SDS011;5183;51.190;6.820;2024-03-02T00:38:21;4.50;;;2.67;;
10275;SDS011;5183;51.190;6.820;2024-03-02T00:40:48;3.47;;;2.40;;
10275;SDS011;5183;51.190;6.820;2024-03-02T00:46:10;2.77;;;2.30;;
10275;SDS011;5183;51.190;6.820;2024-03-02T00:48:38;4.43;;;2.70;;
10275;SDS011;5183;51.190;6.820;2024-03-02T00:51:11;3.10;;;2.60;;
10275;SDS011;5183;51.190;6.820;2024-03-02T00:53:39;3.83;;;2.73;;
10275;SDS011;5183;51.190;6.820;2024-03-02T00:56:07;3.47;;;2.70;;
10275;SDS011;5183;51.190;6.820;2024-03-02T00:58:36;2.90;;;2.60;;
10275;SDS011;5183;51.190;6.820;2024-03-02T01:01:03;3.90;;;2.37;;
10275;SDS011;5183;51.190;6.820;2024-03-02T01:03:30;3.47;;;2.70;;
10275;SDS011;5183;51.190;6.820;2024-03-02T01:05:57;4.13;;;2.50;;
10275;SDS011;5183;51.190;6.820;2024-03-02T01:08:24;2.83;;;2.40;;
10275;SDS011;5183;51.190;6.820;2024-03-02T01:10:53;3.30;;;2.63;;
10275;SDS011;5183;51.190;6.820;2024-03-02T01:13:21;3.17;;;2.43;;
10275;SDS011;5183;51.190;6.820;2024-03-02T01:15:48;3.13;;;2.50;;
10275;SDS011;5183;51.190;6.820;2024-03-02T01:18:15;3.23;;;2.37;;
10275;SDS011;5183;51.190;6.820;2024-03-02T01:20:42;4.57;;;2.50;;
10275;SDS011;5183;51.190;6.820;2024-03-02T01:23:09;3.33;;;2.47;;
10275;SDS011;5183;51.190;6.820;2024-03-02T01:25:36;4.70;;;2.40;;
10275;SDS011;5183;51.190;6.820;2024-03-02T01:28:04;3.40;;;2.10;;
10275;SDS011;5183;51.190;6.820;2024-03-02T01:30:31;2.83;;;2.30;;
10275;SDS011;5183;51.190;6.820;2024-03-02T01:32:58;2.67;;;2.17;;
10275;SDS011;5183;51.190;6.820;2024-03-02T01:35:25;3.13;;;2.03;;
10275;SDS011;5183;51.190;6.820;2024-03-02T01:37:52;3.27;;;2.10;;
10275;SDS011;5183;51.190;6.820;2024-03-02T01:40:19;2.30;;;2.00;;
10275;SDS011;5183;51.190;6.820;2024-03-02T01:42:46;3.40;;;2.53;;
10275;SDS011;5183;51.190;6.820;2024-03-02T01:45:15;2.43;;;2.13;;
10275;SDS011;5183;51.190;6.820;2024-03-02T01:47:42;2.50;;;2.30;;
10275;SDS011;5183;51.190;6.820;2024-03-02T01:50:09;2.90;;;2.00;;
10275;SDS011;5183;51.190;6.820;2024-03-02T01:52:38;3.57;;;2.20;;
10275;SDS011;5183;51.190;6.820;2024-03-02T01:55:05;3.80;;;2.20;;
10275;SDS011;5183;51.190;6.820;2024-03-02T01:57:33;2.93;;;2.20;;
10275;SDS011;5183;51.190;6.820;2024-03-02T02:00:00;2.30;;;2.10;;
10275;SDS011;5183;51.190;6.820;2024-03-02T02:02:30;2.90;;;2.10;;
10275;SDS011;5183;51.190;6.820;2024-03-02T02:04:57;2.67;;;2.30;;
10275;SDS011;5183;51.190;6.820;2024-03-02T02:07:23;2.50;;;2.10;;
10275;SDS011;5183;51.190;6.820;2024-03-02T02:09:50;3.33;;;2.20;;
10275;SDS011;5183;51.190;6.820;2024-03-02T02:12:17;2.67;;;1.90;;
10275;SDS011;5183;51.190;6.820;2024-03-02T02:14:47;3.50;;;2.27;;
10275;SDS011;5183;51.190;6.820;2024-03-02T02:17:14;2.67;;;2.00;;
10275;SDS011;5183;51.190;6.820;2024-03-02T02:19:42;3.70;;;2.00;;
10275;SDS011;5183;51.190;6.820;2024-03-02T02:22:11;2.90;;;2.10;;
10275;SDS011;5183;51.190;6.820;2024-03-02T02:24:39;4.20;;;2.13;;
10275;SDS011;5183;51.190;6.820;2024-03-02T02:27:06;2.77;;;1.73;;
10275;SDS011;5183;51.190;6.820;2024-03-02T02:29:33;3.90;;;2.30;;
10275;SDS011;5183;51.190;6.820;2024-03-02T02:32:00;2.27;;;2.07;;
10275;SDS011;5183;51.190;6.820;2024-03-02T02:34:27;3.77;;;2.20;;
10275;SDS011;5183;51.190;6.820;2024-03-02T02:36:54;3.57;;;2.10;;
10275;SDS011;5183;51.190;6.820;2024-03-02T02:39:23;2.40;;;2.20;;
10275;SDS011;5183;51.190;6.820;2024-03-02T02:41:50;2.07;;;1.90;;
10275;SDS011;5183;51.190;6.820;2024-03-02T02:44:16;3.23;;;1.97;;
10275;SDS011;5183;51.190;6.820;2024-03-02T02:46:43;4.37;;;2.00;;
10275;SDS011;5183;51.190;6.820;2024-03-02T02:49:10;2.73;;;2.07;;
10275;SDS011;5183;51.190;6.820;2024-03-02T02:51:37;3.87;;;2.20;;
10275;SDS011;5183;51.190;6.820;2024-03-02T02:54:04;3.20;;;2.20;;
10275;SDS011;5183;51.190;6.820;2024-03-02T02:56:32;2.10;;;1.77;;
10275;SDS011;5183;51.190;6.820;2024-03-02T02:58:59;3.07;;;2.07;;
10275;SDS011;5183;51.190;6.820;2024-03-02T03:01:26;2.80;;;2.00;;
10275;SDS011;5183;51.190;6.820;2024-03-02T03:03:53;4.00;;;2.00;;
10275;SDS011;5183;51.190;6.820;2024-03-02T03:06:20;2.63;;;1.90;;
10275;SDS011;5183;51.190;6.820;2024-03-02T03:08:46;2.73;;;2.10;;
10275;SDS011;5183;51.190;6.820;2024-03-02T03:11:14;2.87;;;2.13;;
10275;SDS011;5183;51.190;6.820;2024-03-02T03:13:42;2.37;;;1.90;;
10275;SDS011;5183;51.190;6.820;2024-03-02T03:16:09;2.47;;;1.93;;
10275;SDS011;5183;51.190;6.820;2024-03-02T03:18:36;2.27;;;2.07;;
10275;SDS011;5183;51.190;6.820;2024-03-02T03:21:03;2.73;;;2.27;;
10275;SDS011;5183;51.190;6.820;2024-03-02T03:23:30;3.63;;;2.13;;
10275;SDS011;5183;51.190;6.820;2024-03-02T03:25:57;2.30;;;1.80;;
10275;SDS011;5183;51.190;6.820;2024-03-02T03:28:24;1.93;;;1.80;;
10275;SDS011;5183;51.190;6.820;2024-03-02T03:30:52;2.10;;;1.90;;
10275;SDS011;5183;51.190;6.820;2024-03-02T03:33:19;2.97;;;2.33;;
10275;SDS011;5183;51.190;6.820;2024-03-02T03:35:45;2.97;;;2.27;;
10275;SDS011;5183;51.190;6.820;2024-03-02T03:38:13;4.53;;;2.30;;
10275;SDS011;5183;51.190;6.820;2024-03-02T03:40:40;2.27;;;2.00;;
10275;SDS011;5183;51.190;6.820;2024-03-02T03:43:07;2.50;;;2.30;;
10275;SDS011;5183;51.190;6.820;2024-03-02T03:45:34;3.67;;;2.23;;
10275;SDS011;5183;51.190;6.820;2024-03-02T03:48:02;3.60;;;1.90;;
10275;SDS011;5183;51.190;6.820;2024-03-02T03:50:29;3.33;;;1.93;;
10275;SDS011;5183;51.190;6.820;2024-03-02T03:52:56;3.73;;;2.20;;
10275;SDS011;5183;51.190;6.820;2024-03-02T03:55:23;2.83;;;2.10;;
10275;SDS011;5183;51.190;6.820;2024-03-02T03:57:49;2.63;;;2.10;;
10275;SDS011;5183;51.190;6.820;2024-03-02T04:00:16;2.30;;;2.10;;
10275;SDS011;5183;51.190;6.820;2024-03-02T04:02:44;3.73;;;2.10;;
10275;SDS011;5183;51.190;6.820;2024-03-02T04:05:12;3.77;;;2.20;;
10275;SDS011;5183;51.190;6.820;2024-03-02T04:07:39;2.37;;;2.00;;
10275;SDS011;5183;51.190;6.820;2024-03-02T04:10:06;2.73;;;2.00;;
10275;SDS011;5183;51.190;6.820;2024-03-02T04:12:34;2.37;;;2.17;;
10275;SDS011;5183;51.190;6.820;2024-03-02T04:15:03;1.83;;;1.70;;
10275;SDS011;5183;51.190;6.820;2024-03-02T04:17:31;2.50;;;2.00;;
10275;SDS011;5183;51.190;6.820;2024-03-02T04:19:58;4.43;;;2.17;;
10275;SDS011;5183;51.190;6.820;2024-03-02T04:22:27;2.57;;;2.20;;
10275;SDS011;5183;51.190;6.820;2024-03-02T04:24:54;3.57;;;2.30;;
10275;SDS011;5183;51.190;6.820;2024-03-02T04:27:21;2.50;;;2.30;;
10275;SDS011;5183;51.190;6.820;2024-03-02T04:29:47;2.23;;;2.03;;
10275;SDS011;5183;51.190;6.820;2024-03-02T04:32:14;2.63;;;2.33;;
10275;SDS011;5183;51.190;6.820;2024-03-02T04:34:41;2.93;;;2.30;;
10275;SDS011;5183;51.190;6.820;2024-03-02T04:37:08;3.67;;;2.33;;
10275;SDS011;5183;51.190;6.820;2024-03-02T04:39:38;2.40;;;2.07;;
10275;SDS011;5183;51.190;6.820;2024-03-02T04:42:05;2.50;;;2.17;;
10275;SDS011;5183;51.190;6.820;2024-03-02T04:44:32;2.10;;;1.90;;
10275;SDS011;5183;51.190;6.820;2024-03-02T04:46:59;3.50;;;2.37;;
10275;SDS011;5183;51.190;6.820;2024-03-02T04:49:26;2.20;;;2.00;;
10275;SDS011;5183;51.190;6.820;2024-03-02T04:51:52;3.33;;;2.20;;
10275;SDS011;5183;51.190;6.820;2024-03-02T04:54:19;2.67;;;2.43;;
10275;SDS011;5183;51.190;6.820;2024-03-02T04:56:47;4.57;;;2.43;;
10275;SDS011;5183;51.190;6.820;2024-03-02T04:59:15;2.50;;;2.30;;
10275;SDS011;5183;51.190;6.820;2024-03-02T05:01:43;2.80;;;2.40;;
10275;SDS011;5183;51.190;6.820;2024-03-02T05:04:10;5.53;;;2.30;;
10275;SDS011;5183;51.190;6.820;2024-03-02T05:06:37;3.13;;;2.40;;
10275;SDS011;5183;51.190;6.820;2024-03-02T05:09:05;2.40;;;2.10;;
10275;SDS011;5183;51.190;6.820;2024-03-02T05:11:32;2.47;;;2.20;;
10275;SDS011;5183;51.190;6.820;2024-03-02T05:14:25;3.17;;;2.47;;
10275;SDS011;5183;51.190;6.820;2024-03-02T05:16:52;2.67;;;2.30;;
10275;SDS011;5183;51.190;6.820;2024-03-02T05:19:19;3.50;;;2.00;;
10275;SDS011;5183;51.190;6.820;2024-03-02T05:21:46;2.73;;;2.40;;
10275;SDS011;5183;51.190;6.820;2024-03-02T05:24:13;3.47;;;2.50;;
10275;SDS011;5183;51.190;6.820;2024-03-02T05:26:40;2.40;;;2.20;;
10275;SDS011;5183;51.190;6.820;2024-03-02T05:29:07;3.70;;;2.40;;
10275;SDS011;5183;51.190;6.820;2024-03-02T05:31:35;3.30;;;2.60;;
10275;SDS011;5183;51.190;6.820;2024-03-02T05:34:02;3.30;;;2.50;;
10275;SDS011;5183;51.190;6.820;2024-03-02T05:36:30;2.97;;;2.47;;
10275;SDS011;5183;51.190;6.820;2024-03-02T05:38:57;3.70;;;2.60;;
10275;SDS011;5183;51.190;6.820;2024-03-02T05:41:24;3.00;;;2.70;;
10275;SDS011;5183;51.190;6.820;2024-03-02T05:43:51;4.07;;;2.53;;
10275;SDS011;5183;51.190;6.820;2024-03-02T05:46:17;2.80;;;2.50;;
10275;SDS011;5183;51.190;6.820;2024-03-02T05:48:46;5.50;;;2.60;;
10275;SDS011;5183;51.190;6.820;2024-03-02T05:51:12;3.53;;;2.70;;
10275;SDS011;5183;51.190;6.820;2024-03-02T05:53:39;3.80;;;2.50;;
10275;SDS011;5183;51.190;6.820;2024-03-02T05:56:07;4.80;;;2.40;;
10275;SDS011;5183;51.190;6.820;2024-03-02T05:58:33;3.80;;;2.53;;
10275;SDS011;5183;51.190;6.820;2024-03-02T06:01:14;3.93;;;2.83;;
10275;SDS011;5183;51.190;6.820;2024-03-02T06:03:43;4.83;;;2.70;;
10275;SDS011;5183;51.190;6.820;2024-03-02T06:06:11;5.47;;;3.20;;
10275;SDS011;5183;51.190;6.820;2024-03-02T06:08:38;4.10;;;3.33;;
10275;SDS011;5183;51.190;6.820;2024-03-02T06:11:04;4.27;;;3.53;;
10275;SDS011;5183;51.190;6.820;2024-03-02T06:13:31;4.00;;;3.13;;
10275;SDS011;5183;51.190;6.820;2024-03-02T06:15:58;4.20;;;3.23;;
10275;SDS011;5183;51.190;6.820;2024-03-02T06:18:25;4.27;;;3.20;;
10275;SDS011;5183;51.190;6.820;2024-03-02T06:20:53;4.63;;;3.37;;
10275;SDS011;5183;51.190;6.820;2024-03-02T06:23:21;4.37;;;3.23;;
10275;SDS011;5183;51.190;6.820;2024-03-02T06:25:48;4.87;;;3.47;;
10275;SDS011;5183;51.190;6.820;2024-03-02T06:28:14;4.80;;;3.03;;
10275;SDS011;5183;51.190;6.820;2024-03-02T06:30:41;3.97;;;3.23;;
10275;SDS011;5183;51.190;6.820;2024-03-02T06:33:08;6.07;;;4.93;;
10275;SDS011;5183;51.190;6.820;2024-03-02T06:35:35;5.67;;;4.30;;
10275;SDS011;5183;51.190;6.820;2024-03-02T06:38:03;4.23;;;3.00;;
10275;SDS011;5183;51.190;6.820;2024-03-02T06:40:31;6.27;;;3.90;;
10275;SDS011;5183;51.190;6.820;2024-03-02T06:42:59;3.87;;;2.90;;
10275;SDS011;5183;51.190;6.820;2024-03-02T06:45:26;3.60;;;2.70;;
10275;SDS011;5183;51.190;6.820;2024-03-02T06:47:53;6.03;;;3.60;;
10275;SDS011;5183;51.190;6.820;2024-03-02T06:50:19;4.70;;;2.83;;
10275;SDS011;5183;51.190;6.820;2024-03-02T06:52:46;3.47;;;2.80;;
10275;SDS011;5183;51.190;6.820;2024-03-02T06:55:13;3.93;;;2.80;;
10275;SDS011;5183;51.190;6.820;2024-03-02T06:57:42;2.90;;;2.60;;
10275;SDS011;5183;51.190;6.820;2024-03-02T07:00:09;3.77;;;3.13;;
10275;SDS011;5183;51.190;6.820;2024-03-02T07:02:36;4.63;;;2.80;;
10275;SDS011;5183;51.190;6.820;2024-03-02T07:05:05;3.80;;;3.30;;
10275;SDS011;5183;51.190;6.820;2024-03-02T07:07:33;5.33;;;3.63;;
10275;SDS011;5183;51.190;6.820;2024-03-02T07:10:00;3.80;;;2.80;;
10275;SDS011;5183;51.190;6.820;2024-03-02T07:12:27;3.57;;;3.20;;
10275;SDS011;5183;51.190;6.820;2024-03-02T07:14:55;3.57;;;3.03;;
10275;SDS011;5183;51.190;6.820;2024-03-02T07:17:50;5.37;;;3.50;;
10275;SDS011;5183;51.190;6.820;2024-03-02T07:20:17;4.80;;;3.27;;
10275;SDS011;5183;51.190;6.820;2024-03-02T07:22:43;5.90;;;3.47;;
10275;SDS011;5183;51.190;6.820;2024-03-02T07:25:10;3.43;;;3.13;;
10275;SDS011;5183;51.190;6.820;2024-03-02T07:27:38;3.20;;;2.80;;
10275;SDS011;5183;51.190;6.820;2024-03-02T07:30:07;4.57;;;3.43;;
10275;SDS011;5183;51.190;6.820;2024-03-02T07:32:34;4.57;;;3.93;;
10275;SDS011;5183;51.190;6.820;2024-03-02T07:35:01;5.13;;;3.63;;
10275;SDS011;5183;51.190;6.820;2024-03-02T07:37:28;6.67;;;3.47;;
10275;SDS011;5183;51.190;6.820;2024-03-02T07:39:55;4.20;;;3.60;;
10275;SDS011;5183;51.190;6.820;2024-03-02T07:42:22;4.10;;;3.30;;
10275;SDS011;5183;51.190;6.820;2024-03-02T07:44:49;5.70;;;3.13;;
10275;SDS011;5183;51.190;6.820;2024-03-02T07:47:17;7.83;;;3.53;;
10275;SDS011;5183;51.190;6.820;2024-03-02T07:49:44;5.27;;;3.30;;
10275;SDS011;5183;51.190;6.820;2024-03-02T07:52:12;4.73;;;3.40;;
10275;SDS011;5183;51.190;6.820;2024-03-02T07:54:39;3.73;;;3.10;;
10275;SDS011;5183;51.190;6.820;2024-03-02T07:57:05;4.23;;;3.27;;
10275;SDS011;5183;51.190;6.820;2024-03-02T07:59:33;5.77;;;3.60;;
10275;SDS011;5183;51.190;6.820;2024-03-02T08:02:00;4.80;;;3.57;;
10275;SDS011;5183;51.190;6.820;2024-03-02T08:04:29;4.27;;;3.60;;
10275;SDS011;5183;51.190;6.820;2024-03-02T08:06:55;4.87;;;3.37;;
10275;SDS011;5183;51.190;6.820;2024-03-02T08:09:23;4.45;;;3.28;;
10275;SDS011;5183;51.190;6.820;2024-03-02T08:11:49;3.40;;;3.10;;
10275;SDS011;5183;51.190;6.820;2024-03-02T08:14:16;3.73;;;3.10;;
10275;SDS011;5183;51.190;6.820;2024-03-02T08:16:43;5.60;;;3.90;;
10275;SDS011;5183;51.190;6.820;2024-03-02T08:19:13;5.47;;;3.30;;
10275;SDS011;5183;51.190;6.820;2024-03-02T08:21:42;6.27;;;4.37;;
10275;SDS011;5183;51.190;6.820;2024-03-02T08:24:09;3.57;;;3.27;;
10275;SDS011;5183;51.190;6.820;2024-03-02T08:26:36;4.27;;;3.00;;
10275;SDS011;5183;51.190;6.820;2024-03-02T08:29:03;4.37;;;3.20;;
10275;SDS011;5183;51.190;6.820;2024-03-02T08:31:30;3.90;;;2.80;;
10275;SDS011;5183;51.190;6.820;2024-03-02T08:33:57;4.13;;;3.00;;
10275;SDS011;5183;51.190;6.820;2024-03-02T08:36:24;4.57;;;2.80;;
10275;SDS011;5183;51.190;6.820;2024-03-02T08:38:52;4.03;;;3.13;;
10275;SDS011;5183;51.190;6.820;2024-03-02T08:41:19;5.93;;;2.97;;
10275;SDS011;5183;51.190;6.820;2024-03-02T08:43:46;5.20;;;3.10;;
10275;SDS011;5183;51.190;6.820;2024-03-02T08:46:12;6.40;;;3.23;;
10275;SDS011;5183;51.190;6.820;2024-03-02T08:48:39;4.03;;;2.90;;
10275;SDS011;5183;51.190;6.820;2024-03-02T08:51:06;4.10;;;3.07;;
10275;SDS011;5183;51.190;6.820;2024-03-02T08:53:35;4.83;;;2.90;;
10275;SDS011;5183;51.190;6.820;2024-03-02T08:56:04;5.10;;;3.83;;
10275;SDS011;5183;51.190;6.820;2024-03-02T08:58:31;3.67;;;3.00;;
10275;SDS011;5183;51.190;6.820;2024-03-02T09:00:58;5.50;;;3.03;;
10275;SDS011;5183;51.190;6.820;2024-03-02T09:03:25;3.80;;;2.73;;
10275;SDS011;5183;51.190;6.820;2024-03-02T09:05:52;6.13;;;3.10;;
10275;SDS011;5183;51.190;6.820;2024-03-02T09:08:19;4.20;;;3.20;;
10275;SDS011;5183;51.190;6.820;2024-03-02T09:10:46;3.60;;;3.23;;
10275;SDS011;5183;51.190;6.820;2024-03-02T09:13:14;2.90;;;2.70;;
10275;SDS011;5183;51.190;6.820;2024-03-02T09:15:41;4.60;;;3.07;;
10275;SDS011;5183;51.190;6.820;2024-03-02T09:18:09;2.97;;;2.67;;
10275;SDS011;5183;51.190;6.820;2024-03-02T09:20:36;3.03;;;2.80;;
10275;SDS011;5183;51.190;6.820;2024-03-02T09:23:03;3.00;;;2.70;;
10275;SDS011;5183;51.190;6.820;2024-03-02T09:25:30;2.50;;;2.30;;
10275;SDS011;5183;51.190;6.820;2024-03-02T09:27:57;3.13;;;2.57;;
10275;SDS011;5183;51.190;6.820;2024-03-02T09:30:25;3.97;;;1.80;;
10275;SDS011;5183;51.190;6.820;2024-03-02T09:32:52;2.63;;;1.87;;
10275;SDS011;5183;51.190;6.820;2024-03-02T09:35:19;2.87;;;1.53;;
10275;SDS011;5183;51.190;6.820;2024-03-02T09:37:46;1.83;;;1.43;;
10275;SDS011;5183;51.190;6.820;2024-03-02T09:40:13;2.83;;;1.63;;
10275;SDS011;5183;51.190;6.820;2024-03-02T09:42:41;3.70;;;1.53;;
10275;SDS011;5183;51.190;6.820;2024-03-02T09:45:08;2.93;;;1.60;;
10275;SDS011;5183;51.190;6.820;2024-03-02T09:47:37;4.07;;;1.77;;
10275;SDS011;5183;51.190;6.820;2024-03-02T09:50:05;2.90;;;1.50;;
10275;SDS011;5183;51.190;6.820;2024-03-02T09:52:32;4.57;;;1.50;;
10275;SDS011;5183;51.190;6.820;2024-03-02T09:55:00;2.57;;;1.40;;
10275;SDS011;5183;51.190;6.820;2024-03-02T09:57:27;2.57;;;1.50;;
10275;SDS011;5183;51.190;6.820;2024-03-02T09:59:54;3.20;;;1.43;;
10275;SDS011;5183;51.190;6.820;2024-03-02T10:02:21;3.63;;;1.53;;
10275;SDS011;5183;51.190;6.820;2024-03-02T10:04:50;3.33;;;1.80;;
10275;SDS011;5183;51.190;6.820;2024-03-02T10:07:17;3.67;;;1.70;;
10275;SDS011;5183;51.190;6.820;2024-03-02T10:09:45;2.67;;;1.50;;
10275;SDS011;5183;51.190;6.820;2024-03-02T10:12:13;2.40;;;1.60;;
10275;SDS011;5183;51.190;6.820;2024-03-02T10:14:41;2.37;;;1.50;;
10275;SDS011;5183;51.190;6.820;2024-03-02T10:17:09;3.10;;;1.43;;
10275;SDS011;5183;51.190;6.820;2024-03-02T10:19:37;1.70;;;1.40;;
10275;SDS011;5183;51.190;6.820;2024-03-02T10:22:06;1.83;;;1.40;;
10275;SDS011;5183;51.190;6.820;2024-03-02T10:24:35;3.17;;;1.50;;
10275;SDS011;5183;51.190;6.820;2024-03-02T10:27:06;2.50;;;1.73;;
10275;SDS011;5183;51.190;6.820;2024-03-02T10:29:38;1.60;;;1.50;;
10275;SDS011;5183;51.190;6.820;2024-03-02T10:32:07;2.60;;;1.67;;
10275;SDS011;5183;51.190;6.820;2024-03-02T10:34:36;1.70;;;1.23;;
10275;SDS011;5183;51.190;6.820;2024-03-02T10:37:03;1.60;;;1.40;;
10275;SDS011;5183;51.190;6.820;2024-03-02T10:39:34;1.93;;;1.63;;
10275;SDS011;5183;51.190;6.820;2024-03-02T10:42:02;3.30;;;1.73;;
10275;SDS011;5183;51.190;6.820;2024-03-02T10:44:29;2.30;;;1.80;;
10275;SDS011;5183;51.190;6.820;2024-03-02T10:46:57;1.83;;;1.30;;
10275;SDS011;5183;51.190;6.820;2024-03-02T10:49:28;3.67;;;1.50;;
10275;SDS011;5183;51.190;6.820;2024-03-02T10:51:57;1.70;;;1.50;;
10275;SDS011;5183;51.190;6.820;2024-03-02T10:54:24;2.93;;;1.70;;
10275;SDS011;5183;51.190;6.820;2024-03-02T10:56:55;2.80;;;1.93;;
10275;SDS011;5183;51.190;6.820;2024-03-02T10:59:27;3.10;;;2.00;;
10275;SDS011;5183;51.190;6.820;2024-03-02T11:01:56;3.37;;;2.10;;
10275;SDS011;5183;51.190;6.820;2024-03-02T11:04:25;3.80;;;2.67;;
10275;SDS011;5183;51.190;6.820;2024-03-02T11:06:54;4.27;;;2.23;;
10275;SDS011;5183;51.190;6.820;2024-03-02T11:09:25;2.90;;;2.20;;
10275;SDS011;5183;51.190;6.820;2024-03-02T11:11:56;3.37;;;1.97;;
10275;SDS011;5183;51.190;6.820;2024-03-02T11:14:29;3.13;;;2.03;;
10275;SDS011;5183;51.190;6.820;2024-03-02T11:16:58;2.40;;;2.20;;
10275;SDS011;5183;51.190;6.820;2024-03-02T11:19:26;3.23;;;2.00;;
10275;SDS011;5183;51.190;6.820;2024-03-02T11:21:54;3.20;;;2.30;;
10275;SDS011;5183;51.190;6.820;2024-03-02T11:24:28;4.37;;;2.20;;
10275;SDS011;5183;51.190;6.820;2024-03-02T11:27:01;3.33;;;2.07;;
10275;SDS011;5183;51.190;6.820;2024-03-02T11:29:45;3.33;;;2.07;;
10275;SDS011;5183;51.190;6.820;2024-03-02T11:32:20;3.70;;;2.30;;
10275;SDS011;5183;51.190;6.820;2024-03-02T11:34:49;2.00;;;1.80;;
10275;SDS011;5183;51.190;6.820;2024-03-02T11:37:16;3.73;;;2.00;;
10275;SDS011;5183;51.190;6.820;2024-03-02T11:39:46;3.17;;;2.10;;
10275;SDS011;5183;51.190;6.820;2024-03-02T11:42:16;2.50;;;2.00;;
10275;SDS011;5183;51.190;6.820;2024-03-02T11:44:46;3.40;;;2.10;;
10275;SDS011;5183;51.190;6.820;2024-03-02T11:47:14;4.33;;;2.00;;
10275;SDS011;5183;51.190;6.820;2024-03-02T11:49:43;3.97;;;2.13;;
10275;SDS011;5183;51.190;6.820;2024-03-02T11:52:11;3.43;;;2.20;;
10275;SDS011;5183;51.190;6.820;2024-03-02T11:54:40;3.63;;;2.30;;
10275;SDS011;5183;51.190;6.820;2024-03-02T11:57:11;2.50;;;1.80;;
10275;SDS011;5183;51.190;6.820;2024-03-02T11:59:41;3.93;;;1.90;;
10275;SDS011;5183;51.190;6.820;2024-03-02T12:02:12;4.77;;;2.57;;
10275;SDS011;5183;51.190;6.820;2024-03-02T12:04:42;2.67;;;1.90;;
10275;SDS011;5183;51.190;6.820;2024-03-02T12:07:10;3.03;;;2.30;;
10275;SDS011;5183;51.190;6.820;2024-03-02T12:09:37;3.87;;;2.30;;
10275;SDS011;5183;51.190;6.820;2024-03-02T12:12:04;5.00;;;2.00;;
10275;SDS011;5183;51.190;6.820;2024-03-02T12:14:32;4.47;;;2.20;;
10275;SDS011;5183;51.190;6.820;2024-03-02T12:17:01;4.03;;;2.50;;
10275;SDS011;5183;51.190;6.820;2024-03-02T12:19:29;3.30;;;2.10;;
10275;SDS011;5183;51.190;6.820;2024-03-02T12:21:56;3.00;;;2.17;;
10275;SDS011;5183;51.190;6.820;2024-03-02T12:24:23;3.07;;;1.80;;
10275;SDS011;5183;51.190;6.820;2024-03-02T12:26:52;3.00;;;1.80;;
10275;SDS011;5183;51.190;6.820;2024-03-02T12:29:20;2.73;;;1.80;;
10275;SDS011;5183;51.190;6.820;2024-03-02T12:31:47;2.23;;;1.90;;
10275;SDS011;5183;51.190;6.820;2024-03-02T12:34:17;2.80;;;2.17;;
10275;SDS011;5183;51.190;6.820;2024-03-02T12:36:46;3.90;;;2.00;;
10275;SDS011;5183;51.190;6.820;2024-03-02T12:39:14;3.33;;;2.23;;
10275;SDS011;5183;51.190;6.820;2024-03-02T12:41:42;3.10;;;1.77;;
10275;SDS011;5183;51.190;6.820;2024-03-02T12:44:09;3.30;;;1.80;;
10275;SDS011;5183;51.190;6.820;2024-03-02T12:46:36;2.13;;;1.90;;
10275;SDS011;5183;51.190;6.820;2024-03-02T12:49:07;3.03;;;1.70;;
10275;SDS011;5183;51.190;6.820;2024-03-02T12:51:38;2.50;;;1.80;;
10275;SDS011;5183;51.190;6.820;2024-03-02T12:54:06;2.93;;;2.17;;
10275;SDS011;5183;51.190;6.820;2024-03-02T12:56:34;3.97;;;1.80;;
10275;SDS011;5183;51.190;6.820;2024-03-02T12:59:03;1.97;;;1.70;;
10275;SDS011;5183;51.190;6.820;2024-03-02T13:01:30;3.37;;;1.83;;
10275;SDS011;5183;51.190;6.820;2024-03-02T13:03:57;1.90;;;1.70;;
10275;SDS011;5183;51.190;6.820;2024-03-02T13:06:25;3.03;;;1.60;;
10275;SDS011;5183;51.190;6.820;2024-03-02T13:08:55;3.60;;;2.47;;
10275;SDS011;5183;51.190;6.820;2024-03-02T13:11:22;2.27;;;1.90;;
10275;SDS011;5183;51.190;6.820;2024-03-02T13:13:49;2.40;;;1.60;;
10275;SDS011;5183;51.190;6.820;2024-03-02T13:16:16;2.27;;;1.67;;
10275;SDS011;5183;51.190;6.820;2024-03-02T13:18:45;1.87;;;1.70;;
10275;SDS011;5183;51.190;6.820;2024-03-02T13:21:12;1.67;;;1.57;;
10275;SDS011;5183;51.190;6.820;2024-03-02T13:23:39;2.37;;;1.67;;
10275;SDS011;5183;51.190;6.820;2024-03-02T13:26:07;1.67;;;1.57;;
10275;SDS011;5183;51.190;6.820;2024-03-02T13:28:35;1.67;;;1.57;;
10275;SDS011;5183;51.190;6.820;2024-03-02T13:31:04;2.73;;;1.30;;
10275;SDS011;5183;51.190;6.820;2024-03-02T13:33:31;1.60;;;1.50;;
10275;SDS011;5183;51.190;6.820;2024-03-02T13:35:58;2.20;;;1.73;;
10275;SDS011;5183;51.190;6.820;2024-03-02T13:38:26;1.70;;;1.60;;
10275;SDS011;5183;51.190;6.820;2024-03-02T13:40:53;1.87;;;1.33;;
10275;SDS011;5183;51.190;6.820;2024-03-02T13:43:22;1.73;;;1.50;;
10275;SDS011;5183;51.190;6.820;2024-03-02T13:45:49;1.93;;;1.53;;
10275;SDS011;5183;51.190;6.820;2024-03-02T13:48:18;1.77;;;1.40;;
10275;SDS011;5183;51.190;6.820;2024-03-02T13:50:45;2.00;;;1.37;;
10275;SDS011;5183;51.190;6.820;2024-03-02T13:53:12;3.10;;;1.50;;
10275;SDS011;5183;51.190;6.820;2024-03-02T13:55:39;1.63;;;1.27;;
10275;SDS011;5183;51.190;6.820;2024-03-02T13:58:06;2.40;;;1.47;;
10275;SDS011;5183;51.190;6.820;2024-03-02T14:00:35;1.53;;;1.43;;
10275;SDS011;5183;51.190;6.820;2024-03-02T14:03:03;3.00;;;1.67;;
10275;SDS011;5183;51.190;6.820;2024-03-02T14:05:30;1.70;;;1.50;;
10275;SDS011;5183;51.190;6.820;2024-03-02T14:07:57;3.00;;;1.40;;
10275;SDS011;5183;51.190;6.820;2024-03-02T14:10:25;1.80;;;1.60;;
10275;SDS011;5183;51.190;6.820;2024-03-02T14:12:53;1.60;;;1.30;;
10275;SDS011;5183;51.190;6.820;2024-03-02T14:15:20;2.10;;;1.17;;
10275;SDS011;5183;51.190;6.820;2024-03-02T14:17:48;2.00;;;1.60;;
10275;SDS011;5183;51.190;6.820;2024-03-02T14:20:15;1.97;;;1.40;;
10275;SDS011;5183;51.190;6.820;2024-03-02T14:22:46;1.83;;;1.30;;
10275;SDS011;5183;51.190;6.820;2024-03-02T14:25:14;2.30;;;1.17;;
10275;SDS011;5183;51.190;6.820;2024-03-02T14:27:41;2.13;;;1.37;;
10275;SDS011;5183;51.190;6.820;2024-03-02T14:30:08;1.80;;;1.40;;
10275;SDS011;5183;51.190;6.820;2024-03-02T14:32:36;2.30;;;1.50;;
10275;SDS011;5183;51.190;6.820;2024-03-02T14:35:04;1.17;;;1.07;;
10275;SDS011;5183;51.190;6.820;2024-03-02T14:37:35;1.50;;;1.20;;
10275;SDS011;5183;51.190;6.820;2024-03-02T14:40:02;1.83;;;1.50;;
10275;SDS011;5183;51.190;6.820;2024-03-02T14:42:31;1.37;;;1.27;;
10275;SDS011;5183;51.190;6.820;2024-03-02T14:44:58;2.13;;;1.80;;
10275;SDS011;5183;51.190;6.820;2024-03-02T14:47:25;1.93;;;1.30;;
10275;SDS011;5183;51.190;6.820;2024-03-02T14:49:52;1.47;;;1.20;;
10275;SDS011;5183;51.190;6.820;2024-03-02T14:52:20;2.10;;;1.90;;
10275;SDS011;5183;51.190;6.820;2024-03-02T14:54:47;2.43;;;1.47;;
10275;SDS011;5183;51.190;6.820;2024-03-02T14:57:14;2.53;;;1.80;;
10275;SDS011;5183;51.190;6.820;2024-03-02T14:59:41;1.90;;;1.50;;
10275;SDS011;5183;51.190;6.820;2024-03-02T15:02:08;1.57;;;1.30;;
10275;SDS011;5183;51.190;6.820;2024-03-02T15:04:35;1.30;;;1.20;;
10275;SDS011;5183;51.190;6.820;2024-03-02T15:07:02;1.50;;;1.33;;
10275;SDS011;5183;51.190;6.820;2024-03-02T15:09:30;2.57;;;1.77;;